Menu Close Menu
Station Historical Data
Daily Summary for April 26, 2017 Units:  English    Metric   Both
« Previous Day
Next Day »
Daily Weekly Monthly Yearly Custom
  High: Low: Average:
Temperature: 82.1 °F 55.5 °F 68.6 °F
Dew Point: 61.4 °F 52.6 °F 56.5 °F
Humidity: 93% 43% 68%
Wind Speed: 1.0mph 0.0mph 0mph
Wind Gust: 5.0mph - -
Wind- - NW
Pressure: 29.86 in 29.74 in -
Precipitation: 0.00 in    
Historical Graphs
 
 
Tabular Data for April 26, 2017
Time Temperature Dew Point Pressure Wind Wind Speed Wind Gust Humidity Rainfall Rate (Hourly) solar Conditions
00:00 60.2 °F 55.7 °F 29.78 in Calm     85% 0.00 in WeatherDisplay:10.37 W/m2 SCT
00:15 60.0 °F 55.8 °F 29.78 in Calm     86% 0.00 in WeatherDisplay:10.37 W/m2 SCT
00:30 59.6 °F 55.7 °F 29.78 in Calm     87% 0.00 in WeatherDisplay:10.37 W/m2 SCT
00:45 58.9 °F 55.0 °F 29.79 in Calm     87% 0.00 in WeatherDisplay:10.37 W/m2 SCT
01:00 58.5 °F 55.0 °F 29.79 in Calm     88% 0.00 in WeatherDisplay:10.37 W/m2 SCT
01:15 58.3 °F 55.1 °F 29.79 in Calm     89% 0.00 in WeatherDisplay:10.37 W/m2 SCT
01:30 58.0 °F 54.8 °F 29.78 in Calm     89% 0.00 in WeatherDisplay:10.37 W/m2 SCT
01:45 57.8 °F 54.6 °F 29.78 in Calm     89% 0.00 in WeatherDisplay:10.37 W/m2 SCT
02:00 57.4 °F 54.2 °F 29.78 in Calm     89% 0.00 in WeatherDisplay:10.37 W/m2 SCT
02:15 57.0 °F 54.1 °F 29.78 in Calm     90% 0.00 in WeatherDisplay:10.37 W/m2 SCT
02:30 56.9 °F 54.0 °F 29.78 in Calm     90% 0.00 in WeatherDisplay:10.37 W/m2 SCT
02:45 56.7 °F 53.8 °F 29.78 in Calm     90% 0.00 in WeatherDisplay:10.37 W/m2 SCT
03:00 56.5 °F 53.6 °F 29.77 in Calm     90% 0.00 in WeatherDisplay:10.37 W/m2 SCT
03:15 56.3 °F 53.4 °F 29.77 in Calm     90% 0.00 in WeatherDisplay:10.37 W/m2 SCT
03:30 55.5 °F 52.6 °F 29.77 in Calm     90% 0.00 in WeatherDisplay:10.37 W/m2 SCT
03:45 55.5 °F 52.6 °F 29.76 in Calm     90% 0.00 in WeatherDisplay:10.37 W/m2 SCT
04:00 55.5 °F 52.6 °F 29.76 in Calm     90% 0.00 in WeatherDisplay:10.37 W/m2 SCT
04:15 55.5 °F 52.6 °F 29.76 in Calm     90% 0.00 in WeatherDisplay:10.37 W/m2 SCT
04:30 55.5 °F 52.6 °F 29.77 in Calm     90% 0.00 in WeatherDisplay:10.37 W/m2 SCT
04:45 55.5 °F 52.6 °F 29.77 in Calm     90% 0.00 in WeatherDisplay:10.37 W/m2 SCT
05:00 55.5 °F 52.6 °F 29.77 in Calm     90% 0.00 in WeatherDisplay:10.37 W/m2 SCT
05:15 55.5 °F 52.6 °F 29.77 in Calm     90% 0.00 in WeatherDisplay:10.37 W/m2 SCT
05:30 55.5 °F 52.6 °F 29.77 in Calm     90% 0.00 in WeatherDisplay:10.37 W/m2 SCT
05:45 55.5 °F 52.6 °F 29.77 in Calm     90% 0.00 in WeatherDisplay:10.37 W/m2 SCT
06:00 55.5 °F 52.6 °F 29.77 in Calm     90% 0.00 in WeatherDisplay:10.37 W/m2 SCT
06:15 55.5 °F 52.6 °F 29.77 in Calm     90% 0.00 in WeatherDisplay:10.37 W/m2 SCT
06:30 55.5 °F 52.6 °F 29.77 in Calm     90% 0.00 in WeatherDisplay:10.37 W/m2 SCT
06:45 55.5 °F 52.6 °F 29.78 in Calm     90% 0.00 in WeatherDisplay:10.37 W/m2 SCT
07:00 55.5 °F 52.6 °F 29.79 in Calm     90% 0.00 in WeatherDisplay:10.37 W/m2 SCT
07:15 55.5 °F 52.6 °F 29.80 in Calm     90% 0.00 in WeatherDisplay:10.37 W/m2 SCT
07:30 55.5 °F 52.6 °F 29.82 in Calm     90% 0.00 in WeatherDisplay:10.37 W/m2 SCT
07:45 55.5 °F 52.6 °F 29.83 in Calm     90% 0.00 in WeatherDisplay:10.37 W/m2 SCT
08:00 56.9 °F 54.9 °F 29.84 in Calm     93% 0.00 in WeatherDisplay:10.37 W/m2 SCT
08:15 58.4 °F 56.3 °F 29.84 in Calm     93% 0.00 in WeatherDisplay:10.37 W/m2 SCT
08:30 60.1 °F 57.8 °F 29.85 in Calm     92% 0.00 in WeatherDisplay:10.37 W/m2 SCT
08:45 62.7 °F 58.8 °F 29.85 in Calm   1.0 mph 87% 0.00 in WeatherDisplay:10.37 W/m2 SCT
09:00 65.5 °F 58.9 °F 29.85 in Calm   1.0 mph 79% 0.00 in WeatherDisplay:10.37 W/m2 SCT
09:15 66.8 °F 58.7 °F 29.86 in Calm   1.0 mph 75% 0.00 in WeatherDisplay:10.37 W/m2 SCT
09:30 68.3 °F 58.9 °F 29.86 in Calm   3.0 mph 72% 0.00 in WeatherDisplay:10.37 W/m2 SCT
09:45 68.9 °F 58.3 °F 29.86 in WNW 1.0 mph 3.0 mph 69% 0.00 in WeatherDisplay:10.37 W/m2 SCT
10:00 69.9 °F 59.3 °F 29.86 in Calm   2.0 mph 69% 0.00 in WeatherDisplay:10.37 W/m2 SCT
10:15 71.7 °F 58.9 °F 29.86 in Calm   2.0 mph 64% 0.00 in WeatherDisplay:10.37 W/m2 SCT
10:30 71.5 °F 58.7 °F 29.86 in Calm   5.0 mph 64% 0.00 in WeatherDisplay:10.37 W/m2 SCT
10:45 72.2 °F 58.4 °F 29.85 in Calm   2.0 mph 62% 0.00 in WeatherDisplay:10.37 W/m2 SCT
11:00 71.9 °F 57.7 °F 29.85 in Calm   1.0 mph 61% 0.00 in WeatherDisplay:10.37 W/m2 SCT
11:15 73.1 °F 58.8 °F 29.85 in Calm   1.0 mph 61% 0.00 in WeatherDisplay:10.37 W/m2 SCT
11:30 74.7 °F 59.9 °F 29.84 in Calm   2.0 mph 60% 0.00 in WeatherDisplay:10.37 W/m2 SCT
11:45 75.6 °F 58.3 °F 29.84 in Calm   2.0 mph 55% 0.00 in WeatherDisplay:10.37 W/m2 SCT
12:00 76.6 °F 59.2 °F 29.85 in Calm   2.0 mph 55% 0.00 in WeatherDisplay:10.37 W/m2 SCT
12:15 77.7 °F 59.8 °F 29.84 in Calm   1.0 mph 54% 0.00 in WeatherDisplay:10.37 W/m2 SCT
12:30 78.9 °F 61.4 °F 29.83 in Calm   2.0 mph 55% 0.00 in WeatherDisplay:10.37 W/m2 SCT
12:45 81.0 °F 58.9 °F 29.83 in Calm   2.0 mph 47% 0.00 in WeatherDisplay:10.37 W/m2 SCT
13:00 80.3 °F 57.0 °F 29.82 in WNW 1.0 mph 2.0 mph 45% 0.00 in WeatherDisplay:10.37 W/m2 SCT
13:15 81.1 °F 57.7 °F 29.82 in NNW 1.0 mph 3.0 mph 45% 0.00 in WeatherDisplay:10.37 W/m2 SCT
13:30 81.6 °F 57.6 °F 29.82 in Calm   2.0 mph 44% 0.00 in WeatherDisplay:10.37 W/m2 SCT
13:45 81.7 °F 57.0 °F 29.81 in Calm   2.0 mph 43% 0.00 in WeatherDisplay:10.37 W/m2 SCT
14:00 81.9 °F 57.2 °F 29.80 in NW 1.0 mph 2.0 mph 43% 0.00 in WeatherDisplay:10.37 W/m2 SCT
14:15 82.1 °F 58.6 °F 29.80 in Calm   2.0 mph 45% 0.00 in WeatherDisplay:10.37 W/m2 SCT
14:30 81.5 °F 58.7 °F 29.80 in Calm   3.0 mph 46% 0.00 in WeatherDisplay:10.37 W/m2 SCT
14:45 81.0 °F 57.0 °F 29.81 in Calm   3.0 mph 44% 0.00 in WeatherDisplay:10.37 W/m2 SCT
15:00 80.4 °F 57.7 °F 29.80 in Calm   2.0 mph 46% 0.00 in WeatherDisplay:10.37 W/m2 SCT
15:15 80.6 °F 57.3 °F 29.79 in Calm   3.0 mph 45% 0.00 in WeatherDisplay:10.37 W/m2 SCT
15:30 80.0 °F 56.7 °F 29.79 in Calm   2.0 mph 45% 0.00 in WeatherDisplay:10.37 W/m2 SCT
15:45 80.3 °F 57.6 °F 29.79 in Calm   3.0 mph 46% 0.00 in WeatherDisplay:10.37 W/m2 SCT
16:00 79.8 °F 55.9 °F 29.78 in Calm   2.0 mph 44% 0.00 in WeatherDisplay:10.37 W/m2 SCT
16:15 80.1 °F 56.2 °F 29.78 in Calm   2.0 mph 44% 0.00 in WeatherDisplay:10.37 W/m2 SCT
16:30 79.8 °F 57.8 °F 29.77 in Calm   2.0 mph 47% 0.00 in WeatherDisplay:10.37 W/m2 SCT
16:45 79.5 °F 57.5 °F 29.77 in Calm   3.0 mph 47% 0.00 in WeatherDisplay:10.37 W/m2 SCT
17:00 79.7 °F 56.5 °F 29.77 in Calm   3.0 mph 45% 0.00 in WeatherDisplay:10.37 W/m2 SCT
17:15 79.7 °F 57.7 °F 29.76 in Calm   3.0 mph 47% 0.00 in WeatherDisplay:10.37 W/m2 SCT
17:30 79.6 °F 57.0 °F 29.76 in Calm   2.0 mph 46% 0.00 in WeatherDisplay:10.37 W/m2 SCT
17:45 79.8 °F 57.8 °F 29.75 in Calm   1.0 mph 47% 0.00 in WeatherDisplay:10.37 W/m2 SCT
18:00 79.4 °F 57.4 °F 29.75 in Calm   2.0 mph 47% 0.00 in WeatherDisplay:10.37 W/m2 SCT
18:15 78.9 °F 57.5 °F 29.74 in Calm   2.0 mph 48% 0.00 in WeatherDisplay:10.37 W/m2 SCT
18:30 78.2 °F 58.0 °F 29.74 in Calm   2.0 mph 50% 0.00 in WeatherDisplay:10.37 W/m2 SCT
18:45 77.6 °F 56.9 °F 29.74 in Calm   2.0 mph 49% 0.00 in WeatherDisplay:10.37 W/m2 SCT
19:00 77.2 °F 57.7 °F 29.74 in Calm   2.0 mph 51% 0.00 in WeatherDisplay:10.37 W/m2 SCT
19:15 76.5 °F 57.6 °F 29.74 in Calm   1.0 mph 52% 0.00 in WeatherDisplay:10.37 W/m2 SCT
19:30 76.0 °F 57.7 °F 29.74 in Calm   2.0 mph 53% 0.00 in WeatherDisplay:10.37 W/m2 SCT
19:45 76.0 °F 58.2 °F 29.75 in Calm   2.0 mph 54% 0.00 in WeatherDisplay:10.37 W/m2 SCT
20:00 75.3 °F 58.5 °F 29.74 in Calm   1.0 mph 56% 0.00 in WeatherDisplay:10.37 W/m2 SCT
20:15 74.7 °F 58.9 °F 29.74 in Calm   1.0 mph 58% 0.00 in WeatherDisplay:10.37 W/m2 SCT
20:30 73.9 °F 58.7 °F 29.75 in Calm   1.0 mph 59% 0.00 in WeatherDisplay:10.37 W/m2 SCT
20:45 72.9 °F 58.2 °F 29.75 in Calm     60% 0.00 in WeatherDisplay:10.37 W/m2 SCT
21:00 72.0 °F 58.8 °F 29.76 in Calm     63% 0.00 in WeatherDisplay:10.37 W/m2 SCT
21:15 71.8 °F 58.5 °F 29.76 in Calm     63% 0.00 in WeatherDisplay:10.37 W/m2 SCT
21:30 71.1 °F 58.3 °F 29.77 in Calm     64% 0.00 in WeatherDisplay:10.37 W/m2 SCT
21:45 70.8 °F 58.4 °F 29.78 in Calm     65% 0.00 in WeatherDisplay:10.37 W/m2 SCT
22:00 70.7 °F 59.2 °F 29.79 in Calm     67% 0.00 in WeatherDisplay:10.37 W/m2 SCT
22:15 70.9 °F 59.0 °F 29.79 in Calm   1.0 mph 66% 0.00 in WeatherDisplay:10.37 W/m2 SCT
22:30 70.7 °F 58.8 °F 29.79 in Calm   1.0 mph 66% 0.00 in WeatherDisplay:10.37 W/m2 SCT
22:45 70.3 °F 58.8 °F 29.79 in Calm     67% 0.00 in WeatherDisplay:10.37 W/m2 SCT
23:00 69.9 °F 58.0 °F 29.80 in Calm   1.0 mph 66% 0.00 in WeatherDisplay:10.37 W/m2 SCT
23:15 69.7 °F 58.3 °F 29.80 in Calm   1.0 mph 67% 0.00 in WeatherDisplay:10.37 W/m2 SCT
23:30 69.2 °F 57.8 °F 29.80 in Calm   1.0 mph 67% 0.00 in WeatherDisplay:10.37 W/m2 SCT
Piedmont Bend
Compliments of Weather Underground - 4 mb